sensor_id;sensor_type;location;lat;lon;timestamp;temperature;humidity
33508;DHT22;25568;37.410;-122.096;2022-10-16T00:01:47;21.20;76.90
33508;DHT22;25568;37.410;-122.096;2022-10-16T00:04:15;21.20;76.90
33508;DHT22;25568;37.410;-122.096;2022-10-16T00:06:46;21.20;76.90
33508;DHT22;25568;37.410;-122.096;2022-10-16T00:09:15;21.20;76.80
33508;DHT22;25568;37.410;-122.096;2022-10-16T00:11:44;21.20;76.80
33508;DHT22;25568;37.410;-122.096;2022-10-16T00:14:15;21.20;76.80
33508;DHT22;25568;37.410;-122.096;2022-10-16T00:16:44;21.20;76.80
33508;DHT22;25568;37.410;-122.096;2022-10-16T00:19:12;21.20;76.70
33508;DHT22;25568;37.410;-122.096;2022-10-16T00:21:41;21.20;76.60
33508;DHT22;25568;37.410;-122.096;2022-10-16T00:24:12;21.30;76.60
33508;DHT22;25568;37.410;-122.096;2022-10-16T00:26:41;21.20;76.50
33508;DHT22;25568;37.410;-122.096;2022-10-16T00:29:10;21.30;76.60
33508;DHT22;25568;37.410;-122.096;2022-10-16T00:31:38;21.30;76.60
33508;DHT22;25568;37.410;-122.096;2022-10-16T00:34:07;21.20;76.40
33508;DHT22;25568;37.410;-122.096;2022-10-16T00:36:36;21.30;76.30
33508;DHT22;25568;37.410;-122.096;2022-10-16T00:39:05;21.30;76.30
33508;DHT22;25568;37.410;-122.096;2022-10-16T00:41:35;21.30;76.10
33508;DHT22;25568;37.410;-122.096;2022-10-16T00:44:47;21.30;76.10
33508;DHT22;25568;37.410;-122.096;2022-10-16T00:47:21;21.30;76.10
33508;DHT22;25568;37.410;-122.096;2022-10-16T00:49:53;21.30;75.90
33508;DHT22;25568;37.410;-122.096;2022-10-16T00:52:25;21.30;75.90
33508;DHT22;25568;37.410;-122.096;2022-10-16T00:54:55;21.40;75.90
33508;DHT22;25568;37.410;-122.096;2022-10-16T00:57:26;21.30;75.80
33508;DHT22;25568;37.410;-122.096;2022-10-16T00:59:55;21.40;75.70
33508;DHT22;25568;37.410;-122.096;2022-10-16T01:02:25;21.40;75.60
33508;DHT22;25568;37.410;-122.096;2022-10-16T01:04:54;21.40;75.60
33508;DHT22;25568;37.410;-122.096;2022-10-16T01:07:36;21.40;75.50
33508;DHT22;25568;37.410;-122.096;2022-10-16T01:10:17;21.40;75.50
33508;DHT22;25568;37.410;-122.096;2022-10-16T01:12:53;21.40;75.40
33508;DHT22;25568;37.410;-122.096;2022-10-16T01:15:27;21.40;75.40
33508;DHT22;25568;37.410;-122.096;2022-10-16T01:18:01;21.40;75.30
33508;DHT22;25568;37.410;-122.096;2022-10-16T01:20:36;21.40;75.30
33508;DHT22;25568;37.410;-122.096;2022-10-16T01:23:15;21.40;75.20
33508;DHT22;25568;37.410;-122.096;2022-10-16T01:26:00;21.40;75.10
33508;DHT22;25568;37.410;-122.096;2022-10-16T01:28:38;21.40;75.10
33508;DHT22;25568;37.410;-122.096;2022-10-16T01:31:10;21.40;75.10
33508;DHT22;25568;37.410;-122.096;2022-10-16T01:33:43;21.40;75.10
33508;DHT22;25568;37.410;-122.096;2022-10-16T01:36:17;21.50;75.00
33508;DHT22;25568;37.410;-122.096;2022-10-16T01:38:50;21.40;75.00
33508;DHT22;25568;37.410;-122.096;2022-10-16T01:41:24;21.40;74.90
33508;DHT22;25568;37.410;-122.096;2022-10-16T01:44:01;21.50;75.00
33508;DHT22;25568;37.410;-122.096;2022-10-16T01:46:31;21.50;74.90
33508;DHT22;25568;37.410;-122.096;2022-10-16T01:49:01;21.40;74.80
33508;DHT22;25568;37.410;-122.096;2022-10-16T01:51:31;21.40;74.80
33508;DHT22;25568;37.410;-122.096;2022-10-16T01:54:01;21.50;74.80
33508;DHT22;25568;37.410;-122.096;2022-10-16T01:56:31;21.40;74.70
33508;DHT22;25568;37.410;-122.096;2022-10-16T01:59:06;21.40;74.70
33508;DHT22;25568;37.410;-122.096;2022-10-16T02:01:38;21.50;74.80
33508;DHT22;25568;37.410;-122.096;2022-10-16T02:04:11;21.50;74.70
33508;DHT22;25568;37.410;-122.096;2022-10-16T02:06:42;21.40;74.70
33508;DHT22;25568;37.410;-122.096;2022-10-16T02:09:11;21.40;74.70
33508;DHT22;25568;37.410;-122.096;2022-10-16T02:11:42;21.40;74.60
33508;DHT22;25568;37.410;-122.096;2022-10-16T02:14:13;21.40;74.50
33508;DHT22;25568;37.410;-122.096;2022-10-16T02:16:44;21.50;74.60
33508;DHT22;25568;37.410;-122.096;2022-10-16T02:19:14;21.40;74.60
33508;DHT22;25568;37.410;-122.096;2022-10-16T02:21:46;21.40;74.60
33508;DHT22;25568;37.410;-122.096;2022-10-16T02:24:23;21.50;74.60
33508;DHT22;25568;37.410;-122.096;2022-10-16T02:27:00;21.50;74.70
33508;DHT22;25568;37.410;-122.096;2022-10-16T02:29:34;21.40;74.50
33508;DHT22;25568;37.410;-122.096;2022-10-16T02:32:06;21.50;74.50
33508;DHT22;25568;37.410;-122.096;2022-10-16T02:34:37;21.40;74.50
33508;DHT22;25568;37.410;-122.096;2022-10-16T02:37:08;21.50;74.50
33508;DHT22;25568;37.410;-122.096;2022-10-16T02:39:38;21.50;74.50
33508;DHT22;25568;37.410;-122.096;2022-10-16T02:42:10;21.40;74.40
33508;DHT22;25568;37.410;-122.096;2022-10-16T02:44:41;21.40;74.40
33508;DHT22;25568;37.410;-122.096;2022-10-16T02:47:10;21.40;74.40
33508;DHT22;25568;37.410;-122.096;2022-10-16T02:49:39;21.40;74.40
33508;DHT22;25568;37.410;-122.096;2022-10-16T02:52:08;21.40;74.40
33508;DHT22;25568;37.410;-122.096;2022-10-16T02:54:36;21.40;74.50
33508;DHT22;25568;37.410;-122.096;2022-10-16T02:57:05;21.40;74.40
33508;DHT22;25568;37.410;-122.096;2022-10-16T02:59:34;21.40;74.40
33508;DHT22;25568;37.410;-122.096;2022-10-16T03:02:05;21.40;74.40
33508;DHT22;25568;37.410;-122.096;2022-10-16T03:04:33;21.40;74.30
33508;DHT22;25568;37.410;-122.096;2022-10-16T03:07:03;21.40;74.40
33508;DHT22;25568;37.410;-122.096;2022-10-16T03:09:31;21.40;74.40
33508;DHT22;25568;37.410;-122.096;2022-10-16T03:12:00;21.40;74.30
33508;DHT22;25568;37.410;-122.096;2022-10-16T03:14:29;21.40;74.30
33508;DHT22;25568;37.410;-122.096;2022-10-16T03:16:58;21.30;74.30
33508;DHT22;25568;37.410;-122.096;2022-10-16T03:19:28;21.30;74.20
33508;DHT22;25568;37.410;-122.096;2022-10-16T03:21:57;21.40;74.30
33508;DHT22;25568;37.410;-122.096;2022-10-16T03:24:26;21.40;74.30
33508;DHT22;25568;37.410;-122.096;2022-10-16T03:26:54;21.40;74.30
33508;DHT22;25568;37.410;-122.096;2022-10-16T03:29:23;21.30;74.20
33508;DHT22;25568;37.410;-122.096;2022-10-16T03:31:52;21.40;74.30
33508;DHT22;25568;37.410;-122.096;2022-10-16T03:34:21;21.30;74.10
33508;DHT22;25568;37.410;-122.096;2022-10-16T03:36:51;21.30;74.20
33508;DHT22;25568;37.410;-122.096;2022-10-16T03:39:20;21.30;74.20
33508;DHT22;25568;37.410;-122.096;2022-10-16T03:41:49;21.30;74.10
33508;DHT22;25568;37.410;-122.096;2022-10-16T03:44:18;21.30;74.20
33508;DHT22;25568;37.410;-122.096;2022-10-16T03:46:47;21.30;74.20
33508;DHT22;25568;37.410;-122.096;2022-10-16T03:49:15;21.30;74.20
33508;DHT22;25568;37.410;-122.096;2022-10-16T03:51:44;21.30;74.20
33508;DHT22;25568;37.410;-122.096;2022-10-16T03:54:14;21.30;74.20
33508;DHT22;25568;37.410;-122.096;2022-10-16T03:56:43;21.30;74.30
33508;DHT22;25568;37.410;-122.096;2022-10-16T03:59:12;21.30;74.30
33508;DHT22;25568;37.410;-122.096;2022-10-16T04:01:41;21.30;74.30
33508;DHT22;25568;37.410;-122.096;2022-10-16T04:04:10;21.30;74.40
33508;DHT22;25568;37.410;-122.096;2022-10-16T04:06:38;21.30;74.30
33508;DHT22;25568;37.410;-122.096;2022-10-16T04:09:07;21.30;74.30
33508;DHT22;25568;37.410;-122.096;2022-10-16T04:11:38;21.30;74.30
33508;DHT22;25568;37.410;-122.096;2022-10-16T04:14:07;21.20;74.30
33508;DHT22;25568;37.410;-122.096;2022-10-16T04:16:35;21.30;74.40
33508;DHT22;25568;37.410;-122.096;2022-10-16T04:19:04;21.30;74.40
33508;DHT22;25568;37.410;-122.096;2022-10-16T04:21:33;21.20;74.30
33508;DHT22;25568;37.410;-122.096;2022-10-16T04:24:02;21.20;74.40
33508;DHT22;25568;37.410;-122.096;2022-10-16T04:26:30;21.20;74.30
33508;DHT22;25568;37.410;-122.096;2022-10-16T04:29:01;21.20;74.40
33508;DHT22;25568;37.410;-122.096;2022-10-16T04:31:30;21.20;74.30
33508;DHT22;25568;37.410;-122.096;2022-10-16T04:33:58;21.20;74.40
33508;DHT22;25568;37.410;-122.096;2022-10-16T04:36:27;21.20;74.40
33508;DHT22;25568;37.410;-122.096;2022-10-16T04:38:56;21.20;74.40
33508;DHT22;25568;37.410;-122.096;2022-10-16T04:41:25;21.20;74.40
33508;DHT22;25568;37.410;-122.096;2022-10-16T04:43:53;21.20;74.50
33508;DHT22;25568;37.410;-122.096;2022-10-16T04:46:24;21.20;74.50
33508;DHT22;25568;37.410;-122.096;2022-10-16T04:48:53;21.20;74.50
33508;DHT22;25568;37.410;-122.096;2022-10-16T04:51:22;21.20;74.50
33508;DHT22;25568;37.410;-122.096;2022-10-16T04:53:52;21.20;74.50
33508;DHT22;25568;37.410;-122.096;2022-10-16T04:56:21;21.20;74.50
33508;DHT22;25568;37.410;-122.096;2022-10-16T04:58:50;21.20;74.50
33508;DHT22;25568;37.410;-122.096;2022-10-16T05:01:19;21.20;74.50
33508;DHT22;25568;37.410;-122.096;2022-10-16T05:03:50;21.20;74.50
33508;DHT22;25568;37.410;-122.096;2022-10-16T05:06:18;21.20;74.50
33508;DHT22;25568;37.410;-122.096;2022-10-16T05:08:47;21.20;74.50
33508;DHT22;25568;37.410;-122.096;2022-10-16T05:11:16;21.20;74.50
33508;DHT22;25568;37.410;-122.096;2022-10-16T05:13:45;21.20;74.50
33508;DHT22;25568;37.410;-122.096;2022-10-16T05:16:13;21.10;74.50
33508;DHT22;25568;37.410;-122.096;2022-10-16T05:18:42;21.10;75.30
33508;DHT22;25568;37.410;-122.096;2022-10-16T05:21:12;21.10;74.50
33508;DHT22;25568;37.410;-122.096;2022-10-16T05:23:41;21.10;74.50
33508;DHT22;25568;37.410;-122.096;2022-10-16T05:26:10;21.10;74.50
33508;DHT22;25568;37.410;-122.096;2022-10-16T05:28:39;21.10;74.50
33508;DHT22;25568;37.410;-122.096;2022-10-16T05:31:08;21.10;74.50
33508;DHT22;25568;37.410;-122.096;2022-10-16T05:33:38;21.10;74.50
33508;DHT22;25568;37.410;-122.096;2022-10-16T05:36:08;21.10;74.50
33508;DHT22;25568;37.410;-122.096;2022-10-16T05:38:40;21.10;74.50
33508;DHT22;25568;37.410;-122.096;2022-10-16T05:41:08;21.10;74.50
33508;DHT22;25568;37.410;-122.096;2022-10-16T05:43:37;21.10;74.60
33508;DHT22;25568;37.410;-122.096;2022-10-16T05:46:06;21.10;74.50
33508;DHT22;25568;37.410;-122.096;2022-10-16T05:48:35;21.10;74.50
33508;DHT22;25568;37.410;-122.096;2022-10-16T05:51:05;21.10;74.50
33508;DHT22;25568;37.410;-122.096;2022-10-16T05:53:36;21.10;74.50
33508;DHT22;25568;37.410;-122.096;2022-10-16T05:56:10;21.10;74.50
33508;DHT22;25568;37.410;-122.096;2022-10-16T05:58:40;21.10;74.50
33508;DHT22;25568;37.410;-122.096;2022-10-16T06:01:12;21.00;74.40
33508;DHT22;25568;37.410;-122.096;2022-10-16T06:03:40;21.00;74.50
33508;DHT22;25568;37.410;-122.096;2022-10-16T06:06:10;21.10;74.50
33508;DHT22;25568;37.410;-122.096;2022-10-16T06:08:40;21.00;74.40
33508;DHT22;25568;37.410;-122.096;2022-10-16T06:11:13;21.00;74.40
33508;DHT22;25568;37.410;-122.096;2022-10-16T06:13:42;21.00;74.40
33508;DHT22;25568;37.410;-122.096;2022-10-16T06:16:13;21.00;74.30
33508;DHT22;25568;37.410;-122.096;2022-10-16T06:18:41;21.00;74.40
33508;DHT22;25568;37.410;-122.096;2022-10-16T06:21:11;21.00;74.40
33508;DHT22;25568;37.410;-122.096;2022-10-16T06:23:40;21.00;74.30
33508;DHT22;25568;37.410;-122.096;2022-10-16T06:26:12;21.00;74.30
33508;DHT22;25568;37.410;-122.096;2022-10-16T06:28:41;21.00;74.30
33508;DHT22;25568;37.410;-122.096;2022-10-16T06:31:11;21.00;74.30
33508;DHT22;25568;37.410;-122.096;2022-10-16T06:33:40;21.00;74.30
33508;DHT22;25568;37.410;-122.096;2022-10-16T06:36:12;21.00;74.40
33508;DHT22;25568;37.410;-122.096;2022-10-16T06:38:42;21.00;74.40
33508;DHT22;25568;37.410;-122.096;2022-10-16T06:41:13;20.90;74.30
33508;DHT22;25568;37.410;-122.096;2022-10-16T06:43:43;21.00;74.40
33508;DHT22;25568;37.410;-122.096;2022-10-16T06:46:13;21.00;74.30
33508;DHT22;25568;37.410;-122.096;2022-10-16T06:48:42;21.00;74.30
33508;DHT22;25568;37.410;-122.096;2022-10-16T06:51:12;21.00;74.30
33508;DHT22;25568;37.410;-122.096;2022-10-16T06:53:43;21.00;74.30
33508;DHT22;25568;37.410;-122.096;2022-10-16T06:56:15;21.00;74.30
33508;DHT22;25568;37.410;-122.096;2022-10-16T06:58:45;20.90;74.30
33508;DHT22;25568;37.410;-122.096;2022-10-16T07:01:15;20.90;74.30
33508;DHT22;25568;37.410;-122.096;2022-10-16T07:03:45;20.90;74.30
33508;DHT22;25568;37.410;-122.096;2022-10-16T07:06:16;20.90;74.30
33508;DHT22;25568;37.410;-122.096;2022-10-16T07:08:47;20.90;74.30
33508;DHT22;25568;37.410;-122.096;2022-10-16T07:11:19;20.90;74.30
33508;DHT22;25568;37.410;-122.096;2022-10-16T07:13:48;20.90;74.20
33508;DHT22;25568;37.410;-122.096;2022-10-16T07:16:19;20.90;74.20
33508;DHT22;25568;37.410;-122.096;2022-10-16T07:18:49;20.90;74.20
33508;DHT22;25568;37.410;-122.096;2022-10-16T07:21:20;20.90;74.20
33508;DHT22;25568;37.410;-122.096;2022-10-16T07:23:51;20.90;74.20
33508;DHT22;25568;37.410;-122.096;2022-10-16T07:26:22;20.90;74.20
33508;DHT22;25568;37.410;-122.096;2022-10-16T07:28:54;20.90;74.20
33508;DHT22;25568;37.410;-122.096;2022-10-16T07:31:23;20.90;74.20
33508;DHT22;25568;37.410;-122.096;2022-10-16T07:33:53;20.90;74.20
33508;DHT22;25568;37.410;-122.096;2022-10-16T07:36:22;20.90;74.10
33508;DHT22;25568;37.410;-122.096;2022-10-16T07:38:50;20.90;74.10
33508;DHT22;25568;37.410;-122.096;2022-10-16T07:41:21;20.90;74.10
33508;DHT22;25568;37.410;-122.096;2022-10-16T07:43:51;20.90;74.10
33508;DHT22;25568;37.410;-122.096;2022-10-16T07:46:21;20.90;74.10
33508;DHT22;25568;37.410;-122.096;2022-10-16T07:48:50;20.90;74.10
33508;DHT22;25568;37.410;-122.096;2022-10-16T07:51:20;20.90;74.10
33508;DHT22;25568;37.410;-122.096;2022-10-16T07:53:50;20.90;74.10
33508;DHT22;25568;37.410;-122.096;2022-10-16T07:56:21;20.80;74.90
33508;DHT22;25568;37.410;-122.096;2022-10-16T07:58:51;20.90;74.10
33508;DHT22;25568;37.410;-122.096;2022-10-16T08:01:20;20.80;74.10
33508;DHT22;25568;37.410;-122.096;2022-10-16T08:03:49;20.80;74.10
33508;DHT22;25568;37.410;-122.096;2022-10-16T08:06:20;20.80;74.10
33508;DHT22;25568;37.410;-122.096;2022-10-16T08:08:49;20.80;74.10
33508;DHT22;25568;37.410;-122.096;2022-10-16T08:11:18;20.80;74.10
33508;DHT22;25568;37.410;-122.096;2022-10-16T08:13:48;20.80;74.00
33508;DHT22;25568;37.410;-122.096;2022-10-16T08:16:17;20.80;74.10
33508;DHT22;25568;37.410;-122.096;2022-10-16T08:18:46;20.80;74.10
33508;DHT22;25568;37.410;-122.096;2022-10-16T08:21:19;20.80;74.10
33508;DHT22;25568;37.410;-122.096;2022-10-16T08:23:49;20.80;74.10
33508;DHT22;25568;37.410;-122.096;2022-10-16T08:26:18;20.80;74.00
33508;DHT22;25568;37.410;-122.096;2022-10-16T08:28:50;20.80;74.00
33508;DHT22;25568;37.410;-122.096;2022-10-16T08:31:19;20.80;74.10
33508;DHT22;25568;37.410;-122.096;2022-10-16T08:33:47;20.80;74.00
33508;DHT22;25568;37.410;-122.096;2022-10-16T08:36:16;20.80;74.00
33508;DHT22;25568;37.410;-122.096;2022-10-16T08:38:48;20.80;74.10
33508;DHT22;25568;37.410;-122.096;2022-10-16T08:41:34;20.70;74.00
33508;DHT22;25568;37.410;-122.096;2022-10-16T08:44:30;20.70;74.00
33508;DHT22;25568;37.410;-122.096;2022-10-16T08:47:09;20.80;74.00
33508;DHT22;25568;37.410;-122.096;2022-10-16T08:49:42;20.70;74.00
33508;DHT22;25568;37.410;-122.096;2022-10-16T08:52:13;20.80;74.00
33508;DHT22;25568;37.410;-122.096;2022-10-16T08:54:45;20.80;74.00
33508;DHT22;25568;37.410;-122.096;2022-10-16T08:57:18;20.70;74.00
33508;DHT22;25568;37.410;-122.096;2022-10-16T08:59:49;20.70;74.00
33508;DHT22;25568;37.410;-122.096;2022-10-16T09:02:27;20.70;74.00
33508;DHT22;25568;37.410;-122.096;2022-10-16T09:05:41;20.70;74.00
33508;DHT22;25568;37.410;-122.096;2022-10-16T09:08:17;20.70;74.10
33508;DHT22;25568;37.410;-122.096;2022-10-16T09:10:56;20.70;74.00
33508;DHT22;25568;37.410;-122.096;2022-10-16T09:13:29;20.70;74.10
33508;DHT22;25568;37.410;-122.096;2022-10-16T09:16:13;20.70;74.10
33508;DHT22;25568;37.410;-122.096;2022-10-16T09:18:50;20.70;74.10
33508;DHT22;25568;37.410;-122.096;2022-10-16T09:21:24;20.70;74.10
33508;DHT22;25568;37.410;-122.096;2022-10-16T09:23:54;20.70;74.10
33508;DHT22;25568;37.410;-122.096;2022-10-16T09:26:25;20.70;74.10
33508;DHT22;25568;37.410;-122.096;2022-10-16T09:28:54;20.70;74.10
33508;DHT22;25568;37.410;-122.096;2022-10-16T09:31:25;20.70;74.10
33508;DHT22;25568;37.410;-122.096;2022-10-16T09:33:57;20.70;74.10
33508;DHT22;25568;37.410;-122.096;2022-10-16T09:36:28;20.70;74.10
33508;DHT22;25568;37.410;-122.096;2022-10-16T09:39:05;20.70;74.10
33508;DHT22;25568;37.410;-122.096;2022-10-16T09:41:37;20.70;74.10
33508;DHT22;25568;37.410;-122.096;2022-10-16T09:44:14;20.70;74.10
33508;DHT22;25568;37.410;-122.096;2022-10-16T09:46:48;20.70;74.10
33508;DHT22;25568;37.410;-122.096;2022-10-16T09:49:22;20.70;74.10
33508;DHT22;25568;37.410;-122.096;2022-10-16T09:51:51;20.70;74.20
33508;DHT22;25568;37.410;-122.096;2022-10-16T09:54:31;20.70;75.00
33508;DHT22;25568;37.410;-122.096;2022-10-16T09:57:06;20.70;74.20
33508;DHT22;25568;37.410;-122.096;2022-10-16T09:59:46;20.60;74.10
33508;DHT22;25568;37.410;-122.096;2022-10-16T10:02:18;20.70;74.20
33508;DHT22;25568;37.410;-122.096;2022-10-16T10:04:51;20.70;74.20
33508;DHT22;25568;37.410;-122.096;2022-10-16T10:07:24;20.60;74.20
33508;DHT22;25568;37.410;-122.096;2022-10-16T10:09:55;20.60;74.20
33508;DHT22;25568;37.410;-122.096;2022-10-16T10:12:25;20.60;75.00
33508;DHT22;25568;37.410;-122.096;2022-10-16T10:14:56;20.70;74.60
33508;DHT22;25568;37.410;-122.096;2022-10-16T10:17:28;20.60;74.20
33508;DHT22;25568;37.410;-122.096;2022-10-16T10:19:58;20.60;74.20
33508;DHT22;25568;37.410;-122.096;2022-10-16T10:22:38;20.60;74.30
33508;DHT22;25568;37.410;-122.096;2022-10-16T10:25:33;20.60;74.30
33508;DHT22;25568;37.410;-122.096;2022-10-16T10:28:29;20.60;74.30
33508;DHT22;25568;37.410;-122.096;2022-10-16T10:31:05;20.60;74.30
33508;DHT22;25568;37.410;-122.096;2022-10-16T10:33:43;20.60;74.30
33508;DHT22;25568;37.410;-122.096;2022-10-16T10:36:22;20.60;74.30
33508;DHT22;25568;37.410;-122.096;2022-10-16T10:38:57;20.60;74.30
33508;DHT22;25568;37.410;-122.096;2022-10-16T10:47:37;20.60;74.30
33508;DHT22;25568;37.410;-122.096;2022-10-16T10:50:18;20.60;74.30
33508;DHT22;25568;37.410;-122.096;2022-10-16T10:52:58;20.60;74.40
33508;DHT22;25568;37.410;-122.096;2022-10-16T10:55:37;20.60;74.30
33508;DHT22;25568;37.410;-122.096;2022-10-16T10:58:39;20.60;74.30
33508;DHT22;25568;37.410;-122.096;2022-10-16T11:01:10;20.60;74.40
33508;DHT22;25568;37.410;-122.096;2022-10-16T11:04:04;20.60;74.40
33508;DHT22;25568;37.410;-122.096;2022-10-16T11:06:41;20.60;74.50
33508;DHT22;25568;37.410;-122.096;2022-10-16T11:09:17;20.60;74.50
33508;DHT22;25568;37.410;-122.096;2022-10-16T11:11:49;20.60;74.40
33508;DHT22;25568;37.410;-122.096;2022-10-16T11:14:21;20.60;74.50
33508;DHT22;25568;37.410;-122.096;2022-10-16T11:16:54;20.50;74.40
33508;DHT22;25568;37.410;-122.096;2022-10-16T11:19:34;20.60;74.50
33508;DHT22;25568;37.410;-122.096;2022-10-16T11:22:12;20.50;74.40
33508;DHT22;25568;37.410;-122.096;2022-10-16T11:24:48;20.50;74.40
33508;DHT22;25568;37.410;-122.096;2022-10-16T11:27:21;20.50;74.50
33508;DHT22;25568;37.410;-122.096;2022-10-16T11:30:03;20.50;74.50
33508;DHT22;25568;37.410;-122.096;2022-10-16T11:32:38;20.50;74.50
33508;DHT22;25568;37.410;-122.096;2022-10-16T11:35:14;20.50;74.60
33508;DHT22;25568;37.410;-122.096;2022-10-16T11:37:50;20.50;74.50
33508;DHT22;25568;37.410;-122.096;2022-10-16T11:40:25;20.50;74.50
33508;DHT22;25568;37.410;-122.096;2022-10-16T11:43:03;20.50;74.50
33508;DHT22;25568;37.410;-122.096;2022-10-16T11:45:40;20.50;74.50
33508;DHT22;25568;37.410;-122.096;2022-10-16T11:48:18;20.50;74.50
33508;DHT22;25568;37.410;-122.096;2022-10-16T11:50:53;20.50;74.50
33508;DHT22;25568;37.410;-122.096;2022-10-16T11:53:39;20.50;74.60
33508;DHT22;25568;37.410;-122.096;2022-10-16T11:56:13;20.50;74.50
33508;DHT22;25568;37.410;-122.096;2022-10-16T11:58:51;20.50;74.60
33508;DHT22;25568;37.410;-122.096;2022-10-16T12:01:28;20.50;74.60
33508;DHT22;25568;37.410;-122.096;2022-10-16T12:04:07;20.50;74.60
33508;DHT22;25568;37.410;-122.096;2022-10-16T12:06:43;20.50;74.60
33508;DHT22;25568;37.410;-122.096;2022-10-16T12:09:22;20.50;74.70
33508;DHT22;25568;37.410;-122.096;2022-10-16T12:11:51;20.50;74.60
33508;DHT22;25568;37.410;-122.096;2022-10-16T12:14:33;20.50;74.60
33508;DHT22;25568;37.410;-122.096;2022-10-16T12:17:03;20.50;74.60
33508;DHT22;25568;37.410;-122.096;2022-10-16T12:19:33;20.50;74.60
33508;DHT22;25568;37.410;-122.096;2022-10-16T12:22:03;20.50;74.60
33508;DHT22;25568;37.410;-122.096;2022-10-16T12:24:38;20.50;74.60
33508;DHT22;25568;37.410;-122.096;2022-10-16T12:27:22;20.50;74.60
33508;DHT22;25568;37.410;-122.096;2022-10-16T12:29:56;20.40;74.60
33508;DHT22;25568;37.410;-122.096;2022-10-16T12:32:30;20.50;74.70
33508;DHT22;25568;37.410;-122.096;2022-10-16T12:35:00;20.50;74.70
33508;DHT22;25568;37.410;-122.096;2022-10-16T12:37:34;20.50;74.70
33508;DHT22;25568;37.410;-122.096;2022-10-16T12:40:15;20.50;74.70
33508;DHT22;25568;37.410;-122.096;2022-10-16T12:42:44;20.40;74.70
33508;DHT22;25568;37.410;-122.096;2022-10-16T12:45:27;20.40;74.70
33508;DHT22;25568;37.410;-122.096;2022-10-16T12:47:56;20.50;74.80
33508;DHT22;25568;37.410;-122.096;2022-10-16T12:50:29;20.40;74.70
33508;DHT22;25568;37.410;-122.096;2022-10-16T12:52:59;20.50;74.80
33508;DHT22;25568;37.410;-122.096;2022-10-16T12:55:50;20.40;74.70
33508;DHT22;25568;37.410;-122.096;2022-10-16T12:58:37;20.40;74.80
33508;DHT22;25568;37.410;-122.096;2022-10-16T13:01:21;20.40;74.80
33508;DHT22;25568;37.410;-122.096;2022-10-16T13:06:55;20.40;74.80
33508;DHT22;25568;37.410;-122.096;2022-10-16T13:09:43;20.40;74.80
33508;DHT22;25568;37.410;-122.096;2022-10-16T13:12:31;20.40;74.80
33508;DHT22;25568;37.410;-122.096;2022-10-16T13:15:16;20.40;74.80
33508;DHT22;25568;37.410;-122.096;2022-10-16T13:17:53;20.40;74.80
33508;DHT22;25568;37.410;-122.096;2022-10-16T13:20:31;20.40;74.80
33508;DHT22;25568;37.410;-122.096;2022-10-16T13:23:11;20.40;74.80
33508;DHT22;25568;37.410;-122.096;2022-10-16T13:25:57;20.40;74.80
33508;DHT22;25568;37.410;-122.096;2022-10-16T13:28:33;20.40;74.80
33508;DHT22;25568;37.410;-122.096;2022-10-16T13:31:03;20.40;74.80
33508;DHT22;25568;37.410;-122.096;2022-10-16T13:33:34;20.40;74.80
33508;DHT22;25568;37.410;-122.096;2022-10-16T13:36:04;20.40;74.90
33508;DHT22;25568;37.410;-122.096;2022-10-16T13:38:35;20.40;74.90
33508;DHT22;25568;37.410;-122.096;2022-10-16T13:41:05;20.40;74.90
33508;DHT22;25568;37.410;-122.096;2022-10-16T13:43:38;20.40;74.80
33508;DHT22;25568;37.410;-122.096;2022-10-16T13:46:13;20.40;74.90
33508;DHT22;25568;37.410;-122.096;2022-10-16T13:48:42;20.40;74.90
33508;DHT22;25568;37.410;-122.096;2022-10-16T13:51:15;20.30;74.80
33508;DHT22;25568;37.410;-122.096;2022-10-16T13:53:45;20.40;74.90
33508;DHT22;25568;37.410;-122.096;2022-10-16T13:56:15;20.40;74.90
33508;DHT22;25568;37.410;-122.096;2022-10-16T13:58:46;20.40;74.90
33508;DHT22;25568;37.410;-122.096;2022-10-16T14:01:28;20.40;74.90
33508;DHT22;25568;37.410;-122.096;2022-10-16T14:04:02;20.40;74.80
33508;DHT22;25568;37.410;-122.096;2022-10-16T14:06:33;20.30;74.80
33508;DHT22;25568;37.410;-122.096;2022-10-16T14:09:07;20.40;74.90
33508;DHT22;25568;37.410;-122.096;2022-10-16T14:11:44;20.30;74.80
33508;DHT22;25568;37.410;-122.096;2022-10-16T14:14:16;20.30;74.80
33508;DHT22;25568;37.410;-122.096;2022-10-16T14:16:46;20.30;74.80
33508;DHT22;25568;37.410;-122.096;2022-10-16T14:19:20;20.30;74.80
33508;DHT22;25568;37.410;-122.096;2022-10-16T14:21:51;20.30;74.80
33508;DHT22;25568;37.410;-122.096;2022-10-16T14:24:27;20.30;74.80
33508;DHT22;25568;37.410;-122.096;2022-10-16T14:26:56;20.30;74.80
33508;DHT22;25568;37.410;-122.096;2022-10-16T14:29:28;20.30;74.80
33508;DHT22;25568;37.410;-122.096;2022-10-16T14:31:58;20.30;74.80
33508;DHT22;25568;37.410;-122.096;2022-10-16T14:34:30;20.30;74.90
33508;DHT22;25568;37.410;-122.096;2022-10-16T14:37:00;20.30;74.80
33508;DHT22;25568;37.410;-122.096;2022-10-16T14:39:33;20.30;74.80
33508;DHT22;25568;37.410;-122.096;2022-10-16T14:42:02;20.30;74.80
33508;DHT22;25568;37.410;-122.096;2022-10-16T14:44:34;20.30;74.80
33508;DHT22;25568;37.410;-122.096;2022-10-16T14:47:16;20.30;74.80
33508;DHT22;25568;37.410;-122.096;2022-10-16T14:49:48;20.30;74.80
33508;DHT22;25568;37.410;-122.096;2022-10-16T14:52:17;20.30;74.80
33508;DHT22;25568;37.410;-122.096;2022-10-16T14:54:49;20.30;74.80
33508;DHT22;25568;37.410;-122.096;2022-10-16T14:57:24;20.30;74.90
33508;DHT22;25568;37.410;-122.096;2022-10-16T14:59:55;20.30;74.80
33508;DHT22;25568;37.410;-122.096;2022-10-16T15:02:28;20.30;74.80
33508;DHT22;25568;37.410;-122.096;2022-10-16T15:04:57;20.30;74.80
33508;DHT22;25568;37.410;-122.096;2022-10-16T15:07:26;20.30;74.80
33508;DHT22;25568;37.410;-122.096;2022-10-16T15:09:55;20.30;75.60
33508;DHT22;25568;37.410;-122.096;2022-10-16T15:12:25;20.30;74.90
33508;DHT22;25568;37.410;-122.096;2022-10-16T15:14:55;20.30;75.10
33508;DHT22;25568;37.410;-122.096;2022-10-16T15:17:24;20.30;74.90
33508;DHT22;25568;37.410;-122.096;2022-10-16T15:19:53;20.30;74.90
33508;DHT22;25568;37.410;-122.096;2022-10-16T15:22:21;20.30;74.90
33508;DHT22;25568;37.410;-122.096;2022-10-16T15:24:50;20.30;74.90
33508;DHT22;25568;37.410;-122.096;2022-10-16T15:27:19;20.30;74.90
33508;DHT22;25568;37.410;-122.096;2022-10-16T15:29:48;20.30;75.00